sensor_id;sensor_type;location;lat;lon;timestamp;P1;durP1;ratioP1;P2;durP2;ratioP2
74959;SDS011;63518;49.572;1.106;2023-10-13T00:02:03;8.73;;;3.38;;
74959;SDS011;63518;49.572;1.106;2023-10-13T00:04:32;8.90;;;3.47;;
74959;SDS011;63518;49.572;1.106;2023-10-13T00:07:02;8.93;;;4.03;;
74959;SDS011;63518;49.572;1.106;2023-10-13T00:09:30;9.95;;;3.75;;
74959;SDS011;63518;49.572;1.106;2023-10-13T00:12:07;11.57;;;3.63;;
74959;SDS011;63518;49.572;1.106;2023-10-13T00:14:41;8.30;;;3.67;;
74959;SDS011;63518;49.572;1.106;2023-10-13T00:17:08;7.57;;;3.30;;
74959;SDS011;63518;49.572;1.106;2023-10-13T00:19:37;10.65;;;4.25;;
74959;SDS011;63518;49.572;1.106;2023-10-13T00:22:10;9.73;;;3.25;;
74959;SDS011;63518;49.572;1.106;2023-10-13T00:24:39;11.13;;;3.28;;
74959;SDS011;63518;49.572;1.106;2023-10-13T00:27:10;8.27;;;3.10;;
74959;SDS011;63518;49.572;1.106;2023-10-13T00:29:54;11.07;;;3.47;;
74959;SDS011;63518;49.572;1.106;2023-10-13T00:32:51;7.05;;;2.20;;
74959;SDS011;63518;49.572;1.106;2023-10-13T00:35:23;8.80;;;3.22;;
74959;SDS011;63518;49.572;1.106;2023-10-13T00:38:03;6.90;;;3.28;;
74959;SDS011;63518;49.572;1.106;2023-10-13T00:40:31;9.75;;;3.20;;
74959;SDS011;63518;49.572;1.106;2023-10-13T00:42:59;9.80;;;3.08;;
74959;SDS011;63518;49.572;1.106;2023-10-13T00:45:52;10.80;;;3.65;;
74959;SDS011;63518;49.572;1.106;2023-10-13T00:48:24;8.23;;;2.97;;
74959;SDS011;63518;49.572;1.106;2023-10-13T00:51:01;8.43;;;2.95;;
74959;SDS011;63518;49.572;1.106;2023-10-13T00:53:36;9.45;;;3.25;;
74959;SDS011;63518;49.572;1.106;2023-10-13T00:56:07;8.57;;;2.90;;
74959;SDS011;63518;49.572;1.106;2023-10-13T00:58:35;7.97;;;2.78;;
74959;SDS011;63518;49.572;1.106;2023-10-13T01:01:02;9.88;;;3.10;;
74959;SDS011;63518;49.572;1.106;2023-10-13T01:03:48;8.55;;;2.63;;
74959;SDS011;63518;49.572;1.106;2023-10-13T01:06:19;11.32;;;3.00;;
74959;SDS011;63518;49.572;1.106;2023-10-13T01:08:47;10.80;;;3.25;;
74959;SDS011;63518;49.572;1.106;2023-10-13T01:11:18;6.78;;;2.28;;
74959;SDS011;63518;49.572;1.106;2023-10-13T01:13:45;6.72;;;2.67;;
74959;SDS011;63518;49.572;1.106;2023-10-13T01:16:18;10.88;;;3.80;;
74959;SDS011;63518;49.572;1.106;2023-10-13T01:18:50;6.30;;;2.70;;
74959;SDS011;63518;49.572;1.106;2023-10-13T01:21:17;9.35;;;3.25;;
74959;SDS011;63518;49.572;1.106;2023-10-13T01:26:14;8.57;;;2.78;;
74959;SDS011;63518;49.572;1.106;2023-10-13T01:28:50;10.15;;;3.22;;
74959;SDS011;63518;49.572;1.106;2023-10-13T01:31:18;10.25;;;2.38;;
74959;SDS011;63518;49.572;1.106;2023-10-13T01:33:55;8.75;;;3.13;;
74959;SDS011;63518;49.572;1.106;2023-10-13T01:36:28;6.40;;;2.25;;
74959;SDS011;63518;49.572;1.106;2023-10-13T01:39:01;14.02;;;2.55;;
74959;SDS011;63518;49.572;1.106;2023-10-13T01:41:28;4.25;;;2.08;;
74959;SDS011;63518;49.572;1.106;2023-10-13T01:43:57;5.63;;;1.30;;
74959;SDS011;63518;49.572;1.106;2023-10-13T01:46:24;9.20;;;3.35;;
74959;SDS011;63518;49.572;1.106;2023-10-13T01:48:50;8.50;;;3.72;;
74959;SDS011;63518;49.572;1.106;2023-10-13T01:51:20;5.68;;;2.30;;
74959;SDS011;63518;49.572;1.106;2023-10-13T01:53:49;4.72;;;1.80;;
74959;SDS011;63518;49.572;1.106;2023-10-13T01:56:23;7.40;;;2.35;;
74959;SDS011;63518;49.572;1.106;2023-10-13T01:58:50;7.82;;;2.92;;
74959;SDS011;63518;49.572;1.106;2023-10-13T02:01:18;6.85;;;3.13;;
74959;SDS011;63518;49.572;1.106;2023-10-13T02:03:55;6.55;;;2.50;;
74959;SDS011;63518;49.572;1.106;2023-10-13T02:06:34;7.03;;;2.75;;
74959;SDS011;63518;49.572;1.106;2023-10-13T02:09:03;6.60;;;2.25;;
74959;SDS011;63518;49.572;1.106;2023-10-13T02:11:43;8.40;;;2.90;;
74959;SDS011;63518;49.572;1.106;2023-10-13T02:14:13;10.35;;;2.30;;
74959;SDS011;63518;49.572;1.106;2023-10-13T02:16:43;7.28;;;2.45;;
74959;SDS011;63518;49.572;1.106;2023-10-13T02:19:13;8.50;;;3.10;;
74959;SDS011;63518;49.572;1.106;2023-10-13T02:21:42;7.13;;;2.08;;
74959;SDS011;63518;49.572;1.106;2023-10-13T02:24:11;4.30;;;1.80;;
74959;SDS011;63518;49.572;1.106;2023-10-13T02:26:45;7.13;;;2.63;;
74959;SDS011;63518;49.572;1.106;2023-10-13T02:29:12;7.05;;;2.65;;
74959;SDS011;63518;49.572;1.106;2023-10-13T02:31:40;5.03;;;1.80;;
74959;SDS011;63518;49.572;1.106;2023-10-13T02:34:08;5.95;;;2.53;;
74959;SDS011;63518;49.572;1.106;2023-10-13T02:36:36;4.97;;;1.67;;
74959;SDS011;63518;49.572;1.106;2023-10-13T02:39:03;6.20;;;2.55;;
74959;SDS011;63518;49.572;1.106;2023-10-13T02:41:34;7.82;;;2.80;;
74959;SDS011;63518;49.572;1.106;2023-10-13T02:44:05;9.20;;;3.10;;
74959;SDS011;63518;49.572;1.106;2023-10-13T02:46:33;6.18;;;2.47;;
74959;SDS011;63518;49.572;1.106;2023-10-13T02:49:06;8.93;;;2.92;;
74959;SDS011;63518;49.572;1.106;2023-10-13T02:51:37;10.45;;;2.65;;
74959;SDS011;63518;49.572;1.106;2023-10-13T02:54:08;9.90;;;2.45;;
74959;SDS011;63518;49.572;1.106;2023-10-13T02:56:40;8.10;;;2.70;;
74959;SDS011;63518;49.572;1.106;2023-10-13T02:59:15;8.65;;;3.10;;
74959;SDS011;63518;49.572;1.106;2023-10-13T03:01:46;4.43;;;1.40;;
74959;SDS011;63518;49.572;1.106;2023-10-13T03:04:13;5.20;;;2.03;;
74959;SDS011;63518;49.572;1.106;2023-10-13T03:06:40;4.68;;;1.48;;
74959;SDS011;63518;49.572;1.106;2023-10-13T03:09:07;10.07;;;2.65;;
74959;SDS011;63518;49.572;1.106;2023-10-13T03:11:41;6.40;;;1.83;;
74959;SDS011;63518;49.572;1.106;2023-10-13T03:14:09;4.72;;;1.95;;
74959;SDS011;63518;49.572;1.106;2023-10-13T03:16:53;4.05;;;1.88;;
74959;SDS011;63518;49.572;1.106;2023-10-13T03:19:21;4.53;;;1.90;;
74959;SDS011;63518;49.572;1.106;2023-10-13T03:21:49;4.47;;;1.88;;
74959;SDS011;63518;49.572;1.106;2023-10-13T03:24:36;13.20;;;2.50;;
74959;SDS011;63518;49.572;1.106;2023-10-13T03:27:03;7.07;;;2.08;;
74959;SDS011;63518;49.572;1.106;2023-10-13T03:29:35;7.18;;;2.13;;
74959;SDS011;63518;49.572;1.106;2023-10-13T03:32:03;8.05;;;3.30;;
74959;SDS011;63518;49.572;1.106;2023-10-13T03:34:41;10.85;;;2.65;;
74959;SDS011;63518;49.572;1.106;2023-10-13T03:37:17;6.13;;;2.67;;
74959;SDS011;63518;49.572;1.106;2023-10-13T03:39:45;7.95;;;2.65;;
74959;SDS011;63518;49.572;1.106;2023-10-13T03:42:13;7.20;;;2.80;;
74959;SDS011;63518;49.572;1.106;2023-10-13T03:44:45;7.93;;;2.35;;
74959;SDS011;63518;49.572;1.106;2023-10-13T03:47:14;7.45;;;2.55;;
74959;SDS011;63518;49.572;1.106;2023-10-13T03:49:45;6.15;;;2.00;;
74959;SDS011;63518;49.572;1.106;2023-10-13T03:52:12;4.00;;;1.60;;
74959;SDS011;63518;49.572;1.106;2023-10-13T03:54:40;8.52;;;2.95;;
74959;SDS011;63518;49.572;1.106;2023-10-13T03:57:09;7.40;;;2.83;;
74959;SDS011;63518;49.572;1.106;2023-10-13T03:59:38;4.65;;;2.38;;
74959;SDS011;63518;49.572;1.106;2023-10-13T04:02:06;9.82;;;2.20;;
74959;SDS011;63518;49.572;1.106;2023-10-13T04:04:44;9.18;;;2.70;;
74959;SDS011;63518;49.572;1.106;2023-10-13T04:07:14;9.57;;;3.00;;
74959;SDS011;63518;49.572;1.106;2023-10-13T04:10:01;5.45;;;2.03;;
74959;SDS011;63518;49.572;1.106;2023-10-13T04:13:00;8.05;;;3.17;;
74959;SDS011;63518;49.572;1.106;2023-10-13T04:15:46;7.47;;;2.78;;
74959;SDS011;63518;49.572;1.106;2023-10-13T04:18:41;7.30;;;3.20;;
74959;SDS011;63518;49.572;1.106;2023-10-13T04:21:35;6.97;;;2.30;;
74959;SDS011;63518;49.572;1.106;2023-10-13T04:24:20;4.88;;;2.10;;
74959;SDS011;63518;49.572;1.106;2023-10-13T04:26:50;18.27;;;2.97;;
74959;SDS011;63518;49.572;1.106;2023-10-13T04:29:37;7.70;;;2.63;;
74959;SDS011;63518;49.572;1.106;2023-10-13T04:32:23;5.07;;;2.50;;
74959;SDS011;63518;49.572;1.106;2023-10-13T04:34:56;8.93;;;3.35;;
74959;SDS011;63518;49.572;1.106;2023-10-13T04:37:35;7.05;;;2.55;;
74959;SDS011;63518;49.572;1.106;2023-10-13T04:40:15;10.20;;;3.00;;
74959;SDS011;63518;49.572;1.106;2023-10-13T04:42:46;6.72;;;2.22;;
74959;SDS011;63518;49.572;1.106;2023-10-13T04:45:16;9.02;;;3.15;;
74959;SDS011;63518;49.572;1.106;2023-10-13T04:47:59;5.05;;;1.95;;
74959;SDS011;63518;49.572;1.106;2023-10-13T04:50:46;8.80;;;2.97;;
74959;SDS011;63518;49.572;1.106;2023-10-13T04:53:17;6.85;;;2.50;;
74959;SDS011;63518;49.572;1.106;2023-10-13T04:56:00;10.73;;;3.40;;
74959;SDS011;63518;49.572;1.106;2023-10-13T04:58:30;10.77;;;2.90;;
74959;SDS011;63518;49.572;1.106;2023-10-13T05:01:00;6.40;;;2.08;;
74959;SDS011;63518;49.572;1.106;2023-10-13T05:03:47;3.50;;;1.05;;
74959;SDS011;63518;49.572;1.106;2023-10-13T05:06:21;8.60;;;3.15;;
74959;SDS011;63518;49.572;1.106;2023-10-13T05:09:06;8.60;;;3.28;;
74959;SDS011;63518;49.572;1.106;2023-10-13T05:11:51;5.63;;;2.42;;
74959;SDS011;63518;49.572;1.106;2023-10-13T05:14:37;6.20;;;2.50;;
74959;SDS011;63518;49.572;1.106;2023-10-13T05:17:24;8.15;;;3.08;;
74959;SDS011;63518;49.572;1.106;2023-10-13T05:20:09;8.55;;;2.75;;
74959;SDS011;63518;49.572;1.106;2023-10-13T05:22:54;7.63;;;2.40;;
74959;SDS011;63518;49.572;1.106;2023-10-13T05:25:39;7.32;;;2.85;;
74959;SDS011;63518;49.572;1.106;2023-10-13T05:28:24;5.80;;;2.75;;
74959;SDS011;63518;49.572;1.106;2023-10-13T05:31:09;13.93;;;4.00;;
74959;SDS011;63518;49.572;1.106;2023-10-13T05:33:55;5.35;;;2.08;;
74959;SDS011;63518;49.572;1.106;2023-10-13T05:36:40;7.72;;;3.00;;
74959;SDS011;63518;49.572;1.106;2023-10-13T05:39:27;5.57;;;2.17;;
74959;SDS011;63518;49.572;1.106;2023-10-13T05:42:12;7.88;;;2.88;;
74959;SDS011;63518;49.572;1.106;2023-10-13T05:44:58;6.72;;;3.25;;
74959;SDS011;63518;49.572;1.106;2023-10-13T05:47:50;9.80;;;2.47;;
74959;SDS011;63518;49.572;1.106;2023-10-13T05:50:28;7.20;;;3.40;;
74959;SDS011;63518;49.572;1.106;2023-10-13T05:53:15;9.40;;;3.58;;
74959;SDS011;63518;49.572;1.106;2023-10-13T05:56:01;10.15;;;2.88;;
74959;SDS011;63518;49.572;1.106;2023-10-13T05:58:46;7.10;;;2.78;;
74959;SDS011;63518;49.572;1.106;2023-10-13T06:01:31;5.97;;;1.80;;
74959;SDS011;63518;49.572;1.106;2023-10-13T06:04:24;8.00;;;2.80;;
74959;SDS011;63518;49.572;1.106;2023-10-13T06:07:20;6.90;;;3.47;;
74959;SDS011;63518;49.572;1.106;2023-10-13T06:10:05;6.32;;;2.97;;
74959;SDS011;63518;49.572;1.106;2023-10-13T06:12:51;5.63;;;2.47;;
74959;SDS011;63518;49.572;1.106;2023-10-13T06:15:37;8.05;;;3.38;;
74959;SDS011;63518;49.572;1.106;2023-10-13T06:18:22;5.22;;;2.30;;
74959;SDS011;63518;49.572;1.106;2023-10-13T06:21:07;11.30;;;3.67;;
74959;SDS011;63518;49.572;1.106;2023-10-13T06:23:52;8.77;;;3.47;;
74959;SDS011;63518;49.572;1.106;2023-10-13T06:26:38;8.70;;;3.17;;
74959;SDS011;63518;49.572;1.106;2023-10-13T06:29:23;5.10;;;2.47;;
74959;SDS011;63518;49.572;1.106;2023-10-13T06:31:51;4.50;;;1.80;;
74959;SDS011;63518;49.572;1.106;2023-10-13T06:34:18;6.80;;;2.63;;
74959;SDS011;63518;49.572;1.106;2023-10-13T06:36:47;6.22;;;2.22;;
74959;SDS011;63518;49.572;1.106;2023-10-13T06:39:15;7.10;;;3.65;;
74959;SDS011;63518;49.572;1.106;2023-10-13T06:42:01;6.10;;;2.17;;
74959;SDS011;63518;49.572;1.106;2023-10-13T06:44:30;11.15;;;2.70;;
74959;SDS011;63518;49.572;1.106;2023-10-13T06:46:58;6.05;;;3.10;;
74959;SDS011;63518;49.572;1.106;2023-10-13T06:49:25;9.50;;;2.70;;
74959;SDS011;63518;49.572;1.106;2023-10-13T06:51:55;9.95;;;3.20;;
74959;SDS011;63518;49.572;1.106;2023-10-13T06:54:26;4.50;;;1.90;;
74959;SDS011;63518;49.572;1.106;2023-10-13T06:56:54;6.85;;;3.15;;
74959;SDS011;63518;49.572;1.106;2023-10-13T06:59:21;11.18;;;3.03;;
74959;SDS011;63518;49.572;1.106;2023-10-13T07:01:53;5.53;;;2.03;;
74959;SDS011;63518;49.572;1.106;2023-10-13T07:04:20;10.48;;;3.92;;
74959;SDS011;63518;49.572;1.106;2023-10-13T07:06:48;8.32;;;2.60;;
74959;SDS011;63518;49.572;1.106;2023-10-13T07:09:16;5.93;;;2.08;;
74959;SDS011;63518;49.572;1.106;2023-10-13T07:12:02;4.40;;;2.28;;
74959;SDS011;63518;49.572;1.106;2023-10-13T07:14:33;7.10;;;3.13;;
74959;SDS011;63518;49.572;1.106;2023-10-13T07:17:01;5.55;;;1.92;;
74959;SDS011;63518;49.572;1.106;2023-10-13T07:19:32;4.75;;;1.98;;
74959;SDS011;63518;49.572;1.106;2023-10-13T07:22:02;11.70;;;3.80;;
74959;SDS011;63518;49.572;1.106;2023-10-13T07:24:49;3.80;;;1.40;;
74959;SDS011;63518;49.572;1.106;2023-10-13T07:27:17;5.75;;;2.38;;
74959;SDS011;63518;49.572;1.106;2023-10-13T07:29:52;6.20;;;2.17;;
74959;SDS011;63518;49.572;1.106;2023-10-13T07:32:32;8.07;;;3.50;;
74959;SDS011;63518;49.572;1.106;2023-10-13T07:35:01;5.35;;;3.00;;
74959;SDS011;63518;49.572;1.106;2023-10-13T07:37:31;10.27;;;3.50;;
74959;SDS011;63518;49.572;1.106;2023-10-13T07:39:59;8.45;;;2.20;;
74959;SDS011;63518;49.572;1.106;2023-10-13T07:42:25;11.45;;;2.35;;
74959;SDS011;63518;49.572;1.106;2023-10-13T07:44:58;8.32;;;3.83;;
74959;SDS011;63518;49.572;1.106;2023-10-13T07:47:25;11.07;;;3.75;;
74959;SDS011;63518;49.572;1.106;2023-10-13T07:49:54;9.15;;;3.33;;
74959;SDS011;63518;49.572;1.106;2023-10-13T07:52:23;7.95;;;2.33;;
74959;SDS011;63518;49.572;1.106;2023-10-13T07:54:56;10.75;;;2.90;;
74959;SDS011;63518;49.572;1.106;2023-10-13T07:57:29;11.52;;;4.20;;
74959;SDS011;63518;49.572;1.106;2023-10-13T07:59:56;9.20;;;3.97;;
74959;SDS011;63518;49.572;1.106;2023-10-13T08:02:37;6.73;;;2.83;;
74959;SDS011;63518;49.572;1.106;2023-10-13T08:05:18;7.45;;;2.60;;
74959;SDS011;63518;49.572;1.106;2023-10-13T08:08:05;10.10;;;3.60;;
74959;SDS011;63518;49.572;1.106;2023-10-13T08:10:41;7.95;;;2.70;;
74959;SDS011;63518;49.572;1.106;2023-10-13T08:13:12;14.15;;;3.92;;
74959;SDS011;63518;49.572;1.106;2023-10-13T08:15:42;8.13;;;2.45;;
74959;SDS011;63518;49.572;1.106;2023-10-13T08:18:16;6.25;;;2.42;;
74959;SDS011;63518;49.572;1.106;2023-10-13T08:21:02;6.63;;;2.47;;
74959;SDS011;63518;49.572;1.106;2023-10-13T08:23:30;9.52;;;3.45;;
74959;SDS011;63518;49.572;1.106;2023-10-13T08:26:32;8.15;;;3.53;;
74959;SDS011;63518;49.572;1.106;2023-10-13T08:29:03;6.35;;;2.90;;
74959;SDS011;63518;49.572;1.106;2023-10-13T08:31:49;10.38;;;3.33;;
74959;SDS011;63518;49.572;1.106;2023-10-13T08:34:38;16.98;;;3.40;;
74959;SDS011;63518;49.572;1.106;2023-10-13T08:37:15;8.50;;;3.22;;
74959;SDS011;63518;49.572;1.106;2023-10-13T08:39:48;10.50;;;3.97;;
74959;SDS011;63518;49.572;1.106;2023-10-13T08:42:41;7.60;;;2.15;;
74959;SDS011;63518;49.572;1.106;2023-10-13T08:45:16;10.55;;;3.90;;
74959;SDS011;63518;49.572;1.106;2023-10-13T08:47:50;6.80;;;2.30;;
74959;SDS011;63518;49.572;1.106;2023-10-13T08:50:21;11.07;;;2.42;;
74959;SDS011;63518;49.572;1.106;2023-10-13T08:53:07;8.07;;;2.88;;
74959;SDS011;63518;49.572;1.106;2023-10-13T08:55:57;10.43;;;3.88;;
74959;SDS011;63518;49.572;1.106;2023-10-13T08:58:47;9.45;;;3.42;;
74959;SDS011;63518;49.572;1.106;2023-10-13T09:04:21;9.00;;;3.17;;
74959;SDS011;63518;49.572;1.106;2023-10-13T09:06:50;6.65;;;1.92;;
74959;SDS011;63518;49.572;1.106;2023-10-13T09:09:27;7.32;;;3.00;;
74959;SDS011;63518;49.572;1.106;2023-10-13T09:14:42;10.25;;;3.70;;
74959;SDS011;63518;49.572;1.106;2023-10-13T09:17:14;10.25;;;3.85;;
74959;SDS011;63518;49.572;1.106;2023-10-13T09:19:50;7.05;;;3.35;;
74959;SDS011;63518;49.572;1.106;2023-10-13T09:22:27;11.80;;;2.92;;
74959;SDS011;63518;49.572;1.106;2023-10-13T09:25:04;8.23;;;3.38;;
74959;SDS011;63518;49.572;1.106;2023-10-13T09:27:32;8.75;;;3.85;;
74959;SDS011;63518;49.572;1.106;2023-10-13T09:30:00;9.40;;;3.80;;
74959;SDS011;63518;49.572;1.106;2023-10-13T09:32:45;7.18;;;3.20;;
74959;SDS011;63518;49.572;1.106;2023-10-13T09:35:19;11.75;;;4.07;;
74959;SDS011;63518;49.572;1.106;2023-10-13T09:37:49;7.47;;;3.25;;
74959;SDS011;63518;49.572;1.106;2023-10-13T09:40:17;7.13;;;3.35;;
74959;SDS011;63518;49.572;1.106;2023-10-13T09:43:00;6.95;;;3.10;;
74959;SDS011;63518;49.572;1.106;2023-10-13T09:45:41;10.57;;;2.58;;
74959;SDS011;63518;49.572;1.106;2023-10-13T09:48:32;8.82;;;3.97;;
74959;SDS011;63518;49.572;1.106;2023-10-13T09:51:16;11.20;;;3.38;;
74959;SDS011;63518;49.572;1.106;2023-10-13T09:53:52;12.00;;;4.53;;
74959;SDS011;63518;49.572;1.106;2023-10-13T09:56:35;9.48;;;3.95;;
74959;SDS011;63518;49.572;1.106;2023-10-13T09:59:19;10.15;;;3.75;;
74959;SDS011;63518;49.572;1.106;2023-10-13T10:01:51;10.45;;;4.05;;
74959;SDS011;63518;49.572;1.106;2023-10-13T10:04:24;6.88;;;2.58;;
74959;SDS011;63518;49.572;1.106;2023-10-13T10:06:55;4.82;;;2.67;;
74959;SDS011;63518;49.572;1.106;2023-10-13T10:09:29;6.78;;;2.70;;
74959;SDS011;63518;49.572;1.106;2023-10-13T10:12:18;6.55;;;2.53;;
74959;SDS011;63518;49.572;1.106;2023-10-13T10:18:01;7.22;;;2.65;;
74959;SDS011;63518;49.572;1.106;2023-10-13T10:20:33;9.57;;;3.97;;
74959;SDS011;63518;49.572;1.106;2023-10-13T10:23:24;7.38;;;3.25;;
74959;SDS011;63518;49.572;1.106;2023-10-13T10:25:55;12.52;;;3.60;;
74959;SDS011;63518;49.572;1.106;2023-10-13T10:28:35;7.95;;;3.45;;
74959;SDS011;63518;49.572;1.106;2023-10-13T10:31:07;8.38;;;3.78;;
74959;SDS011;63518;49.572;1.106;2023-10-13T10:33:39;5.97;;;2.20;;
74959;SDS011;63518;49.572;1.106;2023-10-13T10:36:06;8.07;;;3.17;;
74959;SDS011;63518;49.572;1.106;2023-10-13T10:38:38;10.43;;;3.72;;
74959;SDS011;63518;49.572;1.106;2023-10-13T10:41:24;10.30;;;3.47;;
74959;SDS011;63518;49.572;1.106;2023-10-13T10:43:56;8.95;;;3.42;;
74959;SDS011;63518;49.572;1.106;2023-10-13T10:46:27;10.43;;;3.67;;
74959;SDS011;63518;49.572;1.106;2023-10-13T10:48:57;8.30;;;3.25;;
74959;SDS011;63518;49.572;1.106;2023-10-13T10:51:31;11.07;;;3.30;;
74959;SDS011;63518;49.572;1.106;2023-10-13T10:54:00;9.10;;;3.42;;
74959;SDS011;63518;49.572;1.106;2023-10-13T10:56:55;8.40;;;3.47;;
74959;SDS011;63518;49.572;1.106;2023-10-13T10:59:22;8.85;;;3.05;;
74959;SDS011;63518;49.572;1.106;2023-10-13T11:01:51;6.53;;;3.08;;
74959;SDS011;63518;49.572;1.106;2023-10-13T11:04:18;8.70;;;3.05;;
74959;SDS011;63518;49.572;1.106;2023-10-13T11:06:49;5.95;;;2.65;;
74959;SDS011;63518;49.572;1.106;2023-10-13T11:17:49;8.52;;;3.70;;
74959;SDS011;63518;49.572;1.106;2023-10-13T11:20:25;10.10;;;3.50;;
74959;SDS011;63518;49.572;1.106;2023-10-13T11:22:52;12.50;;;3.92;;
74959;SDS011;63518;49.572;1.106;2023-10-13T11:25:23;14.68;;;3.58;;
74959;SDS011;63518;49.572;1.106;2023-10-13T11:28:11;7.85;;;3.55;;
74959;SDS011;63518;49.572;1.106;2023-10-13T11:30:46;9.63;;;3.55;;
74959;SDS011;63518;49.572;1.106;2023-10-13T11:33:17;9.45;;;3.65;;
74959;SDS011;63518;49.572;1.106;2023-10-13T11:35:47;11.52;;;3.42;;
74959;SDS011;63518;49.572;1.106;2023-10-13T11:38:30;12.43;;;3.97;;
74959;SDS011;63518;49.572;1.106;2023-10-13T11:41:07;7.72;;;3.33;;
74959;SDS011;63518;49.572;1.106;2023-10-13T11:43:46;13.65;;;3.83;;
74959;SDS011;63518;49.572;1.106;2023-10-13T11:46:31;8.82;;;3.47;;
74959;SDS011;63518;49.572;1.106;2023-10-13T11:49:02;8.23;;;3.38;;
74959;SDS011;63518;49.572;1.106;2023-10-13T11:51:35;12.63;;;3.85;;
74959;SDS011;63518;49.572;1.106;2023-10-13T11:54:04;10.73;;;3.75;;
74959;SDS011;63518;49.572;1.106;2023-10-13T11:56:31;9.38;;;3.20;;
74959;SDS011;63518;49.572;1.106;2023-10-13T11:58:58;5.72;;;2.60;;
74959;SDS011;63518;49.572;1.106;2023-10-13T12:04:13;7.95;;;2.80;;
74959;SDS011;63518;49.572;1.106;2023-10-13T12:07:00;8.80;;;3.40;;
74959;SDS011;63518;49.572;1.106;2023-10-13T12:09:47;8.98;;;3.38;;
74959;SDS011;63518;49.572;1.106;2023-10-13T12:12:37;7.20;;;2.25;;
74959;SDS011;63518;49.572;1.106;2023-10-13T12:15:09;12.20;;;2.95;;
74959;SDS011;63518;49.572;1.106;2023-10-13T12:17:40;7.30;;;2.42;;
74959;SDS011;63518;49.572;1.106;2023-10-13T12:20:11;8.57;;;2.90;;
74959;SDS011;63518;49.572;1.106;2023-10-13T12:22:45;9.18;;;2.78;;
74959;SDS011;63518;49.572;1.106;2023-10-13T12:25:21;8.30;;;2.78;;
74959;SDS011;63518;49.572;1.106;2023-10-13T12:27:52;9.05;;;2.95;;
74959;SDS011;63518;49.572;1.106;2023-10-13T12:30:24;10.10;;;3.00;;
74959;SDS011;63518;49.572;1.106;2023-10-13T12:33:16;9.05;;;3.33;;
74959;SDS011;63518;49.572;1.106;2023-10-13T12:38:37;6.72;;;2.00;;
74959;SDS011;63518;49.572;1.106;2023-10-13T12:44:03;9.05;;;3.25;;
74959;SDS011;63518;49.572;1.106;2023-10-13T12:46:52;10.00;;;3.33;;
74959;SDS011;63518;49.572;1.106;2023-10-13T12:49:39;7.20;;;2.53;;
74959;SDS011;63518;49.572;1.106;2023-10-13T12:52:09;10.27;;;3.33;;
74959;SDS011;63518;49.572;1.106;2023-10-13T12:54:55;9.63;;;2.78;;
74959;SDS011;63518;49.572;1.106;2023-10-13T12:57:26;11.73;;;3.17;;
74959;SDS011;63518;49.572;1.106;2023-10-13T12:59:53;6.05;;;2.13;;
74959;SDS011;63518;49.572;1.106;2023-10-13T13:02:21;6.85;;;2.38;;
74959;SDS011;63518;49.572;1.106;2023-10-13T13:04:53;8.07;;;2.90;;
74959;SDS011;63518;49.572;1.106;2023-10-13T13:07:29;7.72;;;2.85;;
74959;SDS011;63518;49.572;1.106;2023-10-13T13:09:56;8.90;;;2.58;;
74959;SDS011;63518;49.572;1.106;2023-10-13T13:12:26;9.65;;;2.92;;
74959;SDS011;63518;49.572;1.106;2023-10-13T13:17:23;7.50;;;2.88;;
74959;SDS011;63518;49.572;1.106;2023-10-13T13:19:50;11.27;;;3.42;;
74959;SDS011;63518;49.572;1.106;2023-10-13T13:22:17;11.25;;;3.28;;
74959;SDS011;63518;49.572;1.106;2023-10-13T13:24:44;10.60;;;4.10;;
74959;SDS011;63518;49.572;1.106;2023-10-13T13:27:12;6.90;;;2.47;;
74959;SDS011;63518;49.572;1.106;2023-10-13T13:29:40;8.50;;;2.72;;
74959;SDS011;63518;49.572;1.106;2023-10-13T13:32:08;9.82;;;3.17;;
74959;SDS011;63518;49.572;1.106;2023-10-13T13:35:04;10.93;;;2.83;;
74959;SDS011;63518;49.572;1.106;2023-10-13T13:37:31;10.13;;;3.25;;
74959;SDS011;63518;49.572;1.106;2023-10-13T13:39:58;13.18;;;2.72;;
74959;SDS011;63518;49.572;1.106;2023-10-13T13:42:45;8.02;;;3.40;;
74959;SDS011;63518;49.572;1.106;2023-10-13T13:45:15;10.65;;;3.85;;
74959;SDS011;63518;49.572;1.106;2023-10-13T13:47:54;15.73;;;5.78;;
74959;SDS011;63518;49.572;1.106;2023-10-13T13:50:22;11.25;;;4.57;;
74959;SDS011;63518;49.572;1.106;2023-10-13T13:52:58;12.52;;;4.70;;
74959;SDS011;63518;49.572;1.106;2023-10-13T13:55:26;9.90;;;4.25;;
74959;SDS011;63518;49.572;1.106;2023-10-13T13:57:58;9.88;;;4.97;;
74959;SDS011;63518;49.572;1.106;2023-10-13T14:00:25;12.05;;;6.03;;
74959;SDS011;63518;49.572;1.106;2023-10-13T14:03:04;11.43;;;5.45;;
74959;SDS011;63518;49.572;1.106;2023-10-13T14:05:32;14.48;;;6.63;;
74959;SDS011;63518;49.572;1.106;2023-10-13T14:07:59;16.50;;;7.00;;
74959;SDS011;63518;49.572;1.106;2023-10-13T14:10:26;18.60;;;7.80;;
74959;SDS011;63518;49.572;1.106;2023-10-13T14:13:00;16.88;;;7.07;;
74959;SDS011;63518;49.572;1.106;2023-10-13T14:15:39;17.00;;;7.13;;
74959;SDS011;63518;49.572;1.106;2023-10-13T14:18:10;16.00;;;7.15;;
74959;SDS011;63518;49.572;1.106;2023-10-13T14:20:44;18.67;;;8.30;;
74959;SDS011;63518;49.572;1.106;2023-10-13T14:23:11;17.45;;;8.13;;
74959;SDS011;63518;49.572;1.106;2023-10-13T14:25:38;15.40;;;8.07;;
74959;SDS011;63518;49.572;1.106;2023-10-13T14:28:11;13.55;;;7.15;;
74959;SDS011;63518;49.572;1.106;2023-10-13T14:30:43;13.55;;;7.25;;
74959;SDS011;63518;49.572;1.106;2023-10-13T14:33:10;16.17;;;8.80;;
74959;SDS011;63518;49.572;1.106;2023-10-13T14:35:37;15.57;;;7.55;;
74959;SDS011;63518;49.572;1.106;2023-10-13T14:38:04;19.25;;;10.63;;
74959;SDS011;63518;49.572;1.106;2023-10-13T14:40:31;23.45;;;11.98;;
74959;SDS011;63518;49.572;1.106;2023-10-13T14:42:58;13.65;;;8.23;;
74959;SDS011;63518;49.572;1.106;2023-10-13T14:45:24;28.30;;;8.73;;
74959;SDS011;63518;49.572;1.106;2023-10-13T14:47:51;22.35;;;12.73;;
74959;SDS011;63518;49.572;1.106;2023-10-13T14:50:19;19.60;;;10.57;;
74959;SDS011;63518;49.572;1.106;2023-10-13T14:52:50;13.90;;;8.02;;
74959;SDS011;63518;49.572;1.106;2023-10-13T14:55:18;20.15;;;13.35;;
74959;SDS011;63518;49.572;1.106;2023-10-13T14:57:49;16.17;;;9.45;;
74959;SDS011;63518;49.572;1.106;2023-10-13T15:00:18;17.70;;;9.60;;
74959;SDS011;63518;49.572;1.106;2023-10-13T15:02:52;22.30;;;11.20;;
74959;SDS011;63518;49.572;1.106;2023-10-13T15:05:20;19.15;;;12.07;;
74959;SDS011;63518;49.572;1.106;2023-10-13T15:07:47;22.20;;;13.73;;
74959;SDS011;63518;49.572;1.106;2023-10-13T15:10:14;17.23;;;9.07;;
74959;SDS011;63518;49.572;1.106;2023-10-13T15:12:45;15.82;;;10.20;;
74959;SDS011;63518;49.572;1.106;2023-10-13T15:17:46;15.43;;;9.88;;
74959;SDS011;63518;49.572;1.106;2023-10-13T15:20:13;21.58;;;12.38;;
74959;SDS011;63518;49.572;1.106;2023-10-13T15:22:43;24.55;;;12.82;;
74959;SDS011;63518;49.572;1.106;2023-10-13T15:25:11;19.13;;;9.80;;
74959;SDS011;63518;49.572;1.106;2023-10-13T15:27:47;22.27;;;13.68;;
74959;SDS011;63518;49.572;1.106;2023-10-13T15:30:22;15.85;;;9.48;;
74959;SDS011;63518;49.572;1.106;2023-10-13T15:32:57;24.58;;;13.57;;
74959;SDS011;63518;49.572;1.106;2023-10-13T15:35:24;20.30;;;11.57;;
74959;SDS011;63518;49.572;1.106;2023-10-13T15:37:55;27.30;;;14.00;;
74959;SDS011;63518;49.572;1.106;2023-10-13T15:40:22;24.35;;;12.88;;
74959;SDS011;63518;49.572;1.106;2023-10-13T15:42:50;19.65;;;11.77;;
74959;SDS011;63518;49.572;1.106;2023-10-13T15:45:17;14.48;;;9.70;;
74959;SDS011;63518;49.572;1.106;2023-10-13T15:47:45;15.27;;;8.15;;
74959;SDS011;63518;49.572;1.106;2023-10-13T15:53:09;21.92;;;11.02;;
74959;SDS011;63518;49.572;1.106;2023-10-13T15:55:39;18.83;;;10.68;;
74959;SDS011;63518;49.572;1.106;2023-10-13T15:58:07;22.10;;;10.20;;
74959;SDS011;63518;49.572;1.106;2023-10-13T16:00:34;16.05;;;10.10;;
74959;SDS011;63518;49.572;1.106;2023-10-13T16:03:02;17.27;;;8.80;;